createdAt,value
2022-12-18T00:01:34.728Z,99836.97
2022-12-18T00:04:05.011Z,99829.13
2022-12-18T00:06:33.655Z,99843.41
2022-12-18T00:09:03.675Z,99840.75
2022-12-18T00:11:32.048Z,99835.59
2022-12-18T00:14:00.805Z,99844.56
2022-12-18T00:16:31.020Z,99846.22
2022-12-18T00:18:58.821Z,99847.22
2022-12-18T00:21:27.105Z,99853.81
2022-12-18T00:23:54.614Z,99853.63
2022-12-18T00:26:25.172Z,99852.13
2022-12-18T00:28:53.570Z,99853.81
2022-12-18T00:31:24.107Z,99853.81
2022-12-18T00:33:55.155Z,99851.31
2022-12-18T00:36:26.318Z,99855.78
2022-12-18T00:38:55.640Z,99855.78
2022-12-18T00:41:42.268Z,99857.63
2022-12-18T00:44:12.724Z,99863.88
2022-12-18T00:46:40.168Z,99863.19
2022-12-18T00:49:08.460Z,99863.06
2022-12-18T00:51:36.247Z,99877.16
2022-12-18T00:54:03.887Z,99879.00
2022-12-18T00:56:31.719Z,99873.69
2022-12-18T00:58:59.227Z,99872.84
2022-12-18T01:01:26.632Z,99878.00
2022-12-18T01:03:54.344Z,99885.81
2022-12-18T01:06:21.653Z,99896.31
2022-12-18T01:08:49.308Z,99902.44
2022-12-18T01:11:19.010Z,99907.75
2022-12-18T01:13:46.620Z,99909.41
2022-12-18T01:16:15.819Z,99904.09
2022-12-18T01:18:43.823Z,99910.94
2022-12-18T01:21:16.070Z,99904.97
2022-12-18T01:23:45.022Z,99904.97
2022-12-18T01:26:16.121Z,99911.91
2022-12-18T01:28:45.069Z,99916.41
2022-12-18T01:31:21.486Z,99920.03
2022-12-18T01:33:49.611Z,99913.63
2022-12-18T01:36:28.600Z,99911.09
2022-12-18T01:38:56.709Z,99908.56
2022-12-18T01:41:26.988Z,99903.28
2022-12-18T01:43:58.185Z,99916.41
2022-12-18T01:46:27.357Z,99912.25
2022-12-18T01:49:02.203Z,99930.50
2022-12-18T01:51:31.290Z,99932.47
2022-12-18T01:54:00.244Z,99932.34
2022-12-18T01:56:27.703Z,99929.00
2022-12-18T01:59:00.828Z,99929.81
2022-12-18T02:01:31.049Z,99925.66
2022-12-18T02:04:23.571Z,99937.09
2022-12-18T02:07:14.259Z,99947.72
2022-12-18T02:10:04.753Z,99947.72
2022-12-18T02:12:49.310Z,99956.38
2022-12-18T02:15:27.860Z,99967.31
2022-12-18T02:18:04.307Z,99970.66
2022-12-18T02:20:38.021Z,99971.50
2022-12-18T02:23:31.219Z,99977.63
2022-12-18T02:26:28.321Z,99980.41
2022-12-18T02:29:00.805Z,99986.59
2022-12-18T02:31:35.484Z,99984.91
2022-12-18T02:34:07.617Z,99982.25
2022-12-18T02:36:39.019Z,99979.06
2022-12-18T02:39:10.000Z,99976.25
2022-12-18T02:41:38.739Z,99979.91
2022-12-18T02:44:11.907Z,99981.56
2022-12-18T02:46:43.485Z,99988.56
2022-12-18T02:49:42.837Z,99995.00
2022-12-18T02:52:31.784Z,100002.81
2022-12-18T02:55:09.768Z,100003.81
2022-12-18T02:58:14.264Z,100015.13
2022-12-18T03:01:03.917Z,100009.25
2022-12-18T03:03:50.016Z,100012.03
2022-12-18T03:06:26.239Z,100019.03
2022-12-18T03:09:15.763Z,100026.31
2022-12-18T03:12:09.688Z,100028.84
2022-12-18T03:14:39.306Z,100030.50
2022-12-18T03:17:14.513Z,100024.63
2022-12-18T03:19:43.115Z,100026.31
2022-12-18T03:22:10.996Z,100036.09
2022-12-18T03:24:40.505Z,100035.25
2022-12-18T03:27:13.357Z,100026.31
2022-12-18T03:29:49.101Z,100023.78
2022-12-18T03:32:26.563Z,100029.81
2022-12-18T03:34:58.639Z,100026.31
2022-12-18T03:37:25.936Z,100032.75
2022-12-18T03:39:53.611Z,100026.63
2022-12-18T03:43:00.874Z,100037.25
2022-12-18T03:45:37.295Z,100050.53
2022-12-18T03:48:13.801Z,100040.72
2022-12-18T03:50:50.691Z,100047.00
2022-12-18T03:53:53.647Z,100047.88
2022-12-18T03:56:26.348Z,100056.78
2022-12-18T03:58:56.165Z,100057.63
2022-12-18T04:01:29.628Z,100060.44
2022-12-18T04:04:00.243Z,100062.09
2022-12-18T04:06:30.374Z,100069.38
2022-12-18T04:08:59.287Z,100066.72
2022-12-18T04:11:26.882Z,100073.03
2022-12-18T04:13:58.968Z,100062.41
2022-12-18T04:16:27.348Z,100070.38
2022-12-18T04:18:55.143Z,100080.28
2022-12-18T04:21:23.624Z,100081.97
2022-12-18T04:23:50.885Z,100084.91
2022-12-18T04:26:18.501Z,100077.78
2022-12-18T04:28:45.820Z,100075.94
2022-12-18T04:31:14.352Z,100094.53
2022-12-18T04:33:41.953Z,100092.88
2022-12-18T04:36:09.845Z,100097.88
2022-12-18T04:38:37.121Z,100098.19
2022-12-18T04:41:05.205Z,100101.53
2022-12-18T04:43:33.836Z,100101.81
2022-12-18T04:46:09.284Z,100112.28
2022-12-18T04:48:37.460Z,100114.13
2022-12-18T04:51:06.468Z,100119.44
2022-12-18T04:53:33.935Z,100110.47
2022-12-18T04:56:10.489Z,100123.03
2022-12-18T04:58:38.792Z,100137.31
2022-12-18T05:01:08.370Z,100135.63
2022-12-18T05:03:36.502Z,100134.78
2022-12-18T05:06:05.707Z,100137.31
2022-12-18T05:08:33.304Z,100144.28
2022-12-18T05:11:10.532Z,100133.81
2022-12-18T05:13:39.263Z,100139.28
2022-12-18T05:16:10.103Z,100140.94
2022-12-18T05:18:37.447Z,100144.44
2022-12-18T05:21:05.344Z,100144.56
2022-12-18T05:23:32.587Z,100156.84
2022-12-18T05:26:02.767Z,100162.16
2022-12-18T05:28:31.984Z,100160.63
2022-12-18T05:31:01.992Z,100158.56
2022-12-18T05:33:35.390Z,100165.81
2022-12-18T05:36:06.373Z,100158.81
2022-12-18T05:38:35.814Z,100158.13
2022-12-18T05:41:04.984Z,100161.34
2022-12-18T05:43:32.364Z,100165.81
2022-12-18T05:46:04.736Z,100172.78
2022-12-18T05:48:32.009Z,100167.47
2022-12-18T05:51:08.390Z,100179.78
2022-12-18T05:53:37.521Z,100177.13
2022-12-18T05:56:08.353Z,100173.66
2022-12-18T05:58:36.019Z,100174.47
2022-12-18T06:01:16.603Z,100174.63
2022-12-18T06:03:45.080Z,100188.72
2022-12-18T06:06:18.666Z,100171.97
2022-12-18T06:08:46.715Z,100179.91
2022-12-18T06:11:18.935Z,100178.09
2022-12-18T06:13:47.372Z,100184.41
2022-12-18T06:16:14.950Z,100187.06
2022-12-18T06:18:42.432Z,100181.75
2022-12-18T06:21:10.072Z,100188.72
2022-12-18T06:23:37.695Z,100187.06
2022-12-18T06:26:07.849Z,100192.38
2022-12-18T06:28:35.341Z,100202.16
2022-12-18T06:31:04.608Z,100200.31
2022-12-18T06:33:32.848Z,100201.28
2022-12-18T06:36:11.536Z,100210.25
2022-12-18T06:38:43.234Z,100218.91
2022-12-18T06:41:13.473Z,100215.44
2022-12-18T06:43:41.326Z,100216.25
2022-12-18T06:46:09.744Z,100229.53
2022-12-18T06:48:37.041Z,100234.00
2022-12-18T06:51:04.857Z,100229.53
2022-12-18T06:53:33.096Z,100237.50
2022-12-18T06:56:09.856Z,100234.00
2022-12-18T06:58:39.480Z,100247.13
2022-12-18T07:01:09.953Z,100250.78
2022-12-18T07:03:38.800Z,100254.38
2022-12-18T07:06:07.204Z,100262.22
2022-12-18T07:08:34.534Z,100260.56
2022-12-18T07:11:05.285Z,100256.06
2022-12-18T07:13:32.802Z,100257.75
2022-12-18T07:16:12.922Z,100275.63
2022-12-18T07:18:43.644Z,100269.34
2022-12-18T07:21:13.980Z,100277.31
2022-12-18T07:23:41.660Z,100286.25
2022-12-18T07:26:13.275Z,100288.75
2022-12-18T07:28:42.052Z,100289.88
2022-12-18T07:31:13.194Z,100297.72
2022-12-18T07:33:40.796Z,100311.13
2022-12-18T07:36:10.864Z,100302.16
2022-12-18T07:38:38.553Z,100305.53
2022-12-18T07:41:08.832Z,100301.91
2022-12-18T07:43:37.338Z,100299.38
2022-12-18T07:46:06.560Z,100308.19
2022-12-18T07:48:33.930Z,100308.34
2022-12-18T07:51:03.643Z,100310.13
2022-12-18T07:53:31.571Z,100309.19
2022-12-18T07:56:25.889Z,100305.53
2022-12-18T07:58:48.566Z,100305.81
2022-12-18T08:01:16.799Z,100314.75
2022-12-18T08:03:44.576Z,100312.09
2022-12-18T08:06:12.107Z,100302.34
2022-12-18T08:08:41.112Z,100313.09
2022-12-18T08:11:08.885Z,100308.59
2022-12-18T08:13:36.354Z,100311.41
2022-12-18T08:16:07.467Z,100312.25
2022-12-18T08:18:37.084Z,100314.06
2022-12-18T08:21:16.084Z,100316.72
2022-12-18T08:23:44.127Z,100321.16
2022-12-18T08:26:13.037Z,100311.41
2022-12-18T08:28:41.008Z,100315.03
2022-12-18T08:31:09.132Z,100326.34
2022-12-18T08:33:38.924Z,100320.91
2022-12-18T08:36:07.939Z,100316.44
2022-12-18T08:38:35.265Z,100326.22
2022-12-18T08:41:04.982Z,100331.53
2022-12-18T08:43:52.384Z,100337.97
2022-12-18T08:46:21.679Z,100340.63
2022-12-18T08:48:52.186Z,100342.41
2022-12-18T08:51:19.826Z,100353.91
2022-12-18T08:53:47.945Z,100356.69
2022-12-18T08:56:16.139Z,100359.19
2022-12-18T08:58:43.749Z,100362.81
2022-12-18T09:01:13.195Z,100362.81
2022-12-18T09:03:41.547Z,100362.09
2022-12-18T09:06:09.136Z,100365.59
2022-12-18T09:08:37.949Z,100366.47
2022-12-18T09:11:05.808Z,100374.41
2022-12-18T09:13:33.344Z,100377.06
2022-12-18T09:16:00.566Z,100378.75
2022-12-18T09:18:28.140Z,100372.59
2022-12-18T09:20:55.487Z,100379.72
2022-12-18T09:23:23.576Z,100374.41
2022-12-18T09:25:50.811Z,100379.72
2022-12-18T09:28:20.081Z,100377.91
2022-12-18T09:30:49.842Z,100368.25
2022-12-18T09:33:18.067Z,100377.06
2022-12-18T09:35:46.117Z,100377.06
2022-12-18T09:38:16.803Z,100379.03
2022-12-18T09:40:50.121Z,100375.38
2022-12-18T09:43:28.111Z,100380.69
2022-12-18T09:46:01.196Z,100381.69
2022-12-18T09:48:36.276Z,100391.31
2022-12-18T09:51:13.237Z,100392.31
2022-12-18T09:53:45.347Z,100390.59
2022-12-18T09:56:19.636Z,100379.03
2022-12-18T09:58:56.210Z,100383.34
2022-12-18T10:01:24.873Z,100394.94
2022-12-18T10:03:55.848Z,100389.66
2022-12-18T10:06:53.272Z,100385.03
2022-12-18T10:09:20.863Z,100387.94
2022-12-18T10:12:26.521Z,100380.97
2022-12-18T10:15:02.285Z,100386.13
2022-12-18T10:17:55.254Z,100376.38
2022-12-18T10:20:52.170Z,100375.66
2022-12-18T10:23:28.460Z,100380.97
2022-12-18T10:26:04.556Z,100377.63
2022-12-18T10:28:34.157Z,100371.59
2022-12-18T10:31:01.980Z,100367.00
2022-12-18T10:33:32.523Z,100360.00
2022-12-18T10:36:01.139Z,100358.34
2022-12-18T10:38:30.489Z,100359.16
2022-12-18T10:41:27.627Z,100360.00
2022-12-18T10:44:18.645Z,100354.56
2022-12-18T10:46:49.059Z,100359.88
2022-12-18T10:49:22.307Z,100359.16
2022-12-18T10:51:50.375Z,100357.34
2022-12-18T10:54:24.416Z,100350.25
2022-12-18T10:56:52.003Z,100351.31
2022-12-18T10:59:19.464Z,100349.66
2022-12-18T11:01:59.914Z,100346.03
2022-12-18T11:04:32.057Z,100348.66
2022-12-18T11:07:08.120Z,100342.66
2022-12-18T11:09:40.729Z,100341.00
2022-12-18T11:12:11.389Z,100331.22
2022-12-18T11:14:48.493Z,100325.19
2022-12-18T11:17:36.711Z,100334.97
2022-12-18T11:20:10.279Z,100331.34
2022-12-18T11:22:39.195Z,100329.69
2022-12-18T11:28:21.161Z,100327.03
2022-12-18T11:30:48.551Z,100325.34
2022-12-18T11:33:22.561Z,100325.34
2022-12-18T11:36:06.210Z,100339.59
2022-12-18T11:38:38.321Z,100341.28
2022-12-18T11:41:24.398Z,100341.28
2022-12-18T11:43:59.788Z,100348.38
2022-12-18T11:46:37.146Z,100348.53
2022-12-18T11:49:13.958Z,100342.53
2022-12-18T11:51:52.879Z,100343.22
2022-12-18T11:54:20.387Z,100346.84
2022-12-18T11:56:52.429Z,100345.19
2022-12-18T11:59:31.412Z,100341.53
2022-12-18T12:02:25.115Z,100348.78
2022-12-18T12:05:25.652Z,100363.03
2022-12-18T12:07:53.416Z,100352.44
2022-12-18T12:10:23.696Z,100347.97
2022-12-18T12:13:21.548Z,100352.44
2022-12-18T12:16:29.558Z,100357.75
2022-12-18T12:19:02.452Z,100352.56
2022-12-18T12:21:40.409Z,100360.41
2022-12-18T12:24:45.367Z,100355.91
2022-12-18T12:27:54.582Z,100359.41
2022-12-18T12:30:31.642Z,100351.56
2022-12-18T12:33:17.812Z,100356.88
2022-12-18T12:35:47.985Z,100364.00
2022-12-18T12:38:36.481Z,100367.50
2022-12-18T12:41:32.715Z,100368.59
2022-12-18T12:44:10.082Z,100372.97
2022-12-18T12:46:42.585Z,100373.78
2022-12-18T12:49:23.124Z,100366.94
2022-12-18T12:52:15.471Z,100373.91
2022-12-18T12:54:45.755Z,100372.25
2022-12-18T12:57:26.230Z,100367.66
2022-12-18T13:00:06.212Z,100373.09
2022-12-18T13:02:52.153Z,100380.91
2022-12-18T13:05:41.352Z,100385.50
2022-12-18T13:08:11.498Z,100377.56
2022-12-18T13:10:41.772Z,100380.22
2022-12-18T13:13:10.996Z,100385.94
2022-12-18T13:15:51.204Z,100391.38
2022-12-18T13:18:20.750Z,100387.75
2022-12-18T13:21:01.187Z,100387.63
2022-12-18T13:23:37.770Z,100395.59
2022-12-18T13:26:11.278Z,100399.09
2022-12-18T13:28:47.713Z,100403.56
2022-12-18T13:31:24.346Z,100399.91
2022-12-18T13:36:39.593Z,100394.59
2022-12-18T13:39:34.793Z,100396.56
2022-12-18T13:42:06.924Z,100405.22
2022-12-18T13:44:40.323Z,100407.03
2022-12-18T13:47:38.400Z,100407.88
2022-12-18T13:50:28.581Z,100403.56
2022-12-18T13:53:00.268Z,100410.53
2022-12-18T13:55:27.858Z,100411.38
2022-12-18T13:58:05.955Z,100416.81
2022-12-18T14:00:33.366Z,100415.97
2022-12-18T14:03:01.222Z,100421.44
2022-12-18T14:05:32.392Z,100412.47
2022-12-18T14:08:06.933Z,100411.66
2022-12-18T14:10:48.037Z,100413.47
2022-12-18T14:13:41.934Z,100414.44
2022-12-18T14:16:16.163Z,100409.94
2022-12-18T14:19:01.956Z,100409.94
2022-12-18T14:21:47.880Z,100407.44
2022-12-18T14:24:19.703Z,100405.75
2022-12-18T14:26:49.650Z,100398.66
2022-12-18T14:29:29.806Z,100410.34
2022-12-18T14:32:21.210Z,100404.09
2022-12-18T14:34:51.455Z,100414.81
2022-12-18T14:37:24.630Z,100411.59
2022-12-18T14:40:04.413Z,100410.22
2022-12-18T14:42:36.149Z,100409.63
2022-12-18T14:45:42.273Z,100407.09
2022-12-18T14:48:23.458Z,100410.03
2022-12-18T14:51:03.597Z,100413.63
2022-12-18T14:53:35.744Z,100417.28
2022-12-18T14:56:13.236Z,100430.66
2022-12-18T14:58:45.064Z,100423.81
2022-12-18T15:01:23.895Z,100424.81
2022-12-18T15:03:53.737Z,100426.59
2022-12-18T15:06:33.562Z,100423.38
2022-12-18T15:09:03.833Z,100426.03
2022-12-18T15:11:47.177Z,100438.56
2022-12-18T15:14:31.417Z,100433.28
2022-12-18T15:17:00.909Z,100445.66
2022-12-18T15:19:41.656Z,100442.19
2022-12-18T15:22:30.553Z,100447.66
2022-12-18T15:24:59.700Z,100452.25
2022-12-18T15:27:36.781Z,100455.00
2022-12-18T15:30:07.618Z,100457.53
2022-12-18T15:32:37.559Z,100453.31
2022-12-18T15:35:15.232Z,100447.06
2022-12-18T15:37:43.725Z,100451.66
2022-12-18T15:40:20.219Z,100453.47
2022-12-18T15:43:07.827Z,100463.22
2022-12-18T15:45:35.186Z,100460.56
2022-12-18T15:48:19.069Z,100464.06
2022-12-18T15:50:47.183Z,100464.19
2022-12-18T15:53:16.184Z,100468.38
2022-12-18T15:56:02.249Z,100468.72
2022-12-18T15:58:31.117Z,100459.72
2022-12-18T16:01:00.715Z,100462.41
2022-12-18T16:03:28.451Z,100459.34
2022-12-18T16:05:55.774Z,100464.13
2022-12-18T16:08:24.399Z,100460.84
2022-12-18T16:10:51.780Z,100460.56
2022-12-18T16:13:21.243Z,100467.88
2022-12-18T16:15:48.680Z,100469.28
2022-12-18T16:18:16.413Z,100475.72
2022-12-18T16:20:43.766Z,100475.44
2022-12-18T16:23:11.319Z,100484.56
2022-12-18T16:25:38.676Z,100479.69
2022-12-18T16:28:06.445Z,100480.41
2022-12-18T16:30:38.051Z,100486.28
2022-12-18T16:33:07.554Z,100489.78
2022-12-18T16:35:35.234Z,100486.84
2022-12-18T16:38:02.773Z,100493.84
2022-12-18T16:40:32.781Z,100489.50
2022-12-18T16:43:00.318Z,100489.50
2022-12-18T16:45:33.902Z,100483.06
2022-12-18T16:48:01.664Z,100481.97
2022-12-18T16:50:29.012Z,100481.69
2022-12-18T16:52:56.607Z,100474.72
2022-12-18T16:55:23.824Z,100480.28
2022-12-18T16:57:51.339Z,100477.78
2022-12-18T17:00:18.723Z,100481.88
2022-12-18T17:02:46.906Z,100470.53
2022-12-18T17:05:14.538Z,100466.91
2022-12-18T17:07:42.130Z,100452.19
2022-12-18T17:10:09.996Z,100461.84
2022-12-18T17:12:37.641Z,100452.88
2022-12-18T17:15:05.335Z,100451.47
2022-12-18T17:17:33.541Z,100445.22
2022-12-18T17:20:00.784Z,100447.16
2022-12-18T17:22:28.413Z,100444.78
2022-12-18T17:24:55.694Z,100426.91
2022-12-18T17:27:23.369Z,100427.88
2022-12-18T17:29:50.951Z,100421.84
2022-12-18T17:32:18.555Z,100427.16
2022-12-18T17:34:47.013Z,100436.13
2022-12-18T17:37:15.674Z,100444.22
2022-12-18T17:39:43.551Z,100438.63
2022-12-18T17:42:15.484Z,100441.44
2022-12-18T17:44:44.235Z,100439.72
2022-12-18T17:47:13.492Z,100454.00
2022-12-18T17:49:41.090Z,100457.38
2022-12-18T17:52:08.824Z,100466.56
2022-12-18T17:54:39.539Z,100469.94
2022-12-18T17:57:06.856Z,100469.94
2022-12-18T17:59:34.526Z,100475.25
2022-12-18T18:02:02.190Z,100467.41
2022-12-18T18:04:30.536Z,100475.50
2022-12-18T18:06:57.857Z,100471.06
2022-12-18T18:09:25.651Z,100469.34
2022-12-18T18:12:11.875Z,100473.84
2022-12-18T18:14:39.604Z,100469.34
2022-12-18T18:17:07.124Z,100469.34
2022-12-18T18:19:34.702Z,100471.19
2022-12-18T18:22:03.108Z,100459.56
2022-12-18T18:24:33.132Z,100457.06
2022-12-18T18:27:00.487Z,100458.88
2022-12-18T18:29:30.453Z,100457.19
2022-12-18T18:31:58.845Z,100465.41
2022-12-18T18:34:29.115Z,100469.06
2022-12-18T18:36:56.679Z,100474.50
2022-12-18T18:39:24.249Z,100475.38
2022-12-18T18:41:51.719Z,100472.72
2022-12-18T18:44:26.205Z,100485.28
2022-12-18T18:46:58.323Z,100489.47
2022-12-18T18:49:27.321Z,100495.63
2022-12-18T18:51:56.148Z,100492.25
2022-12-18T18:54:24.708Z,100485.28
2022-12-18T18:59:39.815Z,100483.59
2022-12-18T19:02:12.101Z,100486.25
2022-12-18T19:04:44.971Z,100487.22
2022-12-18T19:07:29.591Z,100494.22
2022-12-18T19:10:04.180Z,100497.84
2022-12-18T19:12:52.948Z,100503.41
2022-12-18T19:15:20.603Z,100509.25
2022-12-18T19:17:48.056Z,100511.91
2022-12-18T19:20:15.943Z,100510.94
2022-12-18T19:22:43.345Z,100514.56
2022-12-18T19:25:14.144Z,100521.81
2022-12-18T19:27:42.021Z,100511.19
2022-12-18T19:30:10.414Z,100498.06
2022-12-18T19:32:37.813Z,100495.00
2022-12-18T19:35:05.863Z,100505.63
2022-12-18T19:37:35.083Z,100503.81
2022-12-18T19:40:09.121Z,100515.03
2022-12-18T19:42:39.824Z,100516.69
2022-12-18T19:45:08.133Z,100519.09
2022-12-18T19:47:35.383Z,100517.16
2022-12-18T19:50:03.121Z,100517.16
2022-12-18T19:52:30.586Z,100516.16
2022-12-18T19:54:58.287Z,100522.19
2022-12-18T19:57:26.076Z,100517.56
2022-12-18T19:59:53.615Z,100516.59
2022-12-18T20:02:21.134Z,100511.28
2022-12-18T20:04:49.927Z,100505.97
2022-12-18T20:07:18.508Z,100503.47
2022-12-18T20:09:46.068Z,100504.28
2022-12-18T20:12:14.395Z,100493.66
2022-12-18T20:14:42.203Z,100506.94
2022-12-18T20:17:11.001Z,100512.13
2022-12-18T20:19:39.136Z,100498.56
2022-12-18T20:22:06.900Z,100493.25
2022-12-18T20:24:34.498Z,100483.59
2022-12-18T20:27:02.051Z,100492.78
2022-12-18T20:29:29.649Z,100491.69
2022-12-18T20:31:57.118Z,100497.25
2022-12-18T20:34:24.773Z,100503.56
2022-12-18T20:36:52.412Z,100497.53
2022-12-18T20:39:21.209Z,100494.72
2022-12-18T20:41:49.505Z,100479.09
2022-12-18T20:44:23.040Z,100469.59
2022-12-18T20:46:56.646Z,100481.03
2022-12-18T20:49:26.436Z,100469.72
2022-12-18T20:51:56.324Z,100457.53
2022-12-18T20:54:26.793Z,100463.69
2022-12-18T20:56:54.489Z,100459.38
2022-12-18T20:59:23.249Z,100460.19
2022-12-18T21:01:52.033Z,100459.50
2022-12-18T21:04:20.401Z,100458.78
2022-12-18T21:06:53.372Z,100458.06
2022-12-18T21:09:25.545Z,100456.13
2022-12-18T21:12:14.348Z,100453.75
2022-12-18T21:14:44.274Z,100459.19
2022-12-18T21:17:12.061Z,100455.84
2022-12-18T21:19:40.446Z,100453.19
2022-12-18T21:22:09.762Z,100454.13
2022-12-18T21:24:37.816Z,100463.09
2022-12-18T21:27:05.280Z,100469.50
2022-12-18T21:29:33.320Z,100468.66
2022-12-18T21:32:02.428Z,100465.84
2022-12-18T21:34:31.468Z,100466.97
2022-12-18T21:36:59.982Z,100458.31
2022-12-18T21:39:29.285Z,100452.16
2022-12-18T21:42:16.177Z,100447.69
2022-12-18T21:44:46.751Z,100462.91
2022-12-18T21:47:21.963Z,100461.25
2022-12-18T21:49:52.706Z,100456.88
2022-12-18T21:52:30.745Z,100460.66
2022-12-18T21:55:09.157Z,100464.13
2022-12-18T21:57:40.113Z,100460.78
2022-12-18T22:00:18.465Z,100460.78
2022-12-18T22:02:48.489Z,100467.06
2022-12-18T22:05:36.019Z,100469.97
2022-12-18T22:08:03.260Z,100468.31
2022-12-18T22:10:31.135Z,100459.22
2022-12-18T22:12:58.557Z,100464.66
2022-12-18T22:15:26.129Z,100456.03
2022-12-18T22:17:58.716Z,100454.44
2022-12-18T22:20:29.759Z,100457.97
2022-12-18T22:22:57.793Z,100459.91
2022-12-18T22:25:25.596Z,100456.25
2022-12-18T22:28:11.657Z,100466.03
2022-12-18T22:30:39.174Z,100456.53
2022-12-18T22:33:06.844Z,100449.53
2022-12-18T22:35:34.849Z,100450.53
2022-12-18T22:38:02.181Z,100453.41
2022-12-18T22:40:30.125Z,100453.31
2022-12-18T22:42:57.659Z,100456.94
2022-12-18T22:45:26.363Z,100453.41
2022-12-18T22:47:53.718Z,100451.75
2022-12-18T22:50:21.530Z,100459.00
2022-12-18T22:52:48.856Z,100455.63
2022-12-18T22:55:16.389Z,100462.63
2022-12-18T22:57:47.050Z,100451.31
2022-12-18T23:00:23.826Z,100456.47
2022-12-18T23:02:59.218Z,100453.97
2022-12-18T23:05:30.533Z,100450.63
2022-12-18T23:07:58.546Z,100454.94
2022-12-18T23:10:27.221Z,100447.97
2022-12-18T23:12:54.494Z,100447.97
2022-12-18T23:15:27.929Z,100441.94
2022-12-18T23:17:59.418Z,100441.94
2022-12-18T23:20:27.788Z,100439.84
2022-12-18T23:22:55.132Z,100446.69
2022-12-18T23:25:23.537Z,100448.41
2022-12-18T23:27:51.020Z,100459.84
2022-12-18T23:30:18.823Z,100453.69
2022-12-18T23:32:46.119Z,100451.03
2022-12-18T23:35:15.602Z,100453.41
2022-12-18T23:38:00.075Z,100449.94
2022-12-18T23:40:29.671Z,100450.06
2022-12-18T23:42:58.502Z,100446.44
2022-12-18T23:45:26.063Z,100445.63
2022-12-18T23:47:53.494Z,100435.25
2022-12-18T23:50:24.045Z,100429.13
2022-12-18T23:53:05.076Z,100423.81
2022-12-18T23:55:38.601Z,100434.41
2022-12-18T23:58:06.023Z,100439.72
